Rocky Mountain House, Canada
Current Conditions -  °F | °C
As of 7:00 AM on Monday 24 Nov 2014 (Local Time) from CYQF Reporting Station
Broken Clouds Broken Clouds  
Wind Chill: 19°   Ceiling: 9000
Heat Index: 27°   Visibility: 15mi
Dew Point: 21°   Wind: 7mph
Humidity: 80%   Direction: 280°W
Pressure: 29.96"   Gusts: NA
Location:  52.38°N, 114.93°W
Report Text: CYQF 241400Z 28006KT 15SM FEW040 BKN090 M03/M06 A2996 RMK SC1AC4 SLP197
Loading
Personal Weather Stations






























Interactive Weather Map New forecast layout! Learn more

10-Day Weather Forecast

Advertisements
Track Severe Weather on mobile